Latest Weather Observations for Gove Airport

IDD60801

Issued at 2:01 pm CST Monday 31 August 2015 (issued every 30 minutes, with the page automatically refreshed every 10 minutes)

About weather observations | Map of weather stations | Latest weather observations for NT | Other Formats
Station Details ID: 014508 Name: GOVE AIRPORT Lat: -12.27 Lon: 136.82 Height: 51.6 m
Data from the previous 72 hours. | See also: Recent months at Gove Airport
Date/Time
CST
Temp
°C
App
Temp
°C
Dew
Point
Rel
Hum
%
Delta-T
°C
Wind Press
QNH
hPa
Press
MSL
hPa
Rain
since 9 am
mm
Dir
 
Spd
km/h
Gust
km/h
Spd
kts
Gust
kts
31/01:46pm 29.4 26.6 17.4 48 7.6 SE 28 50 15 27 1014.1 - 0.0
31/01:30pm 29.2 26.3 17.0 47 7.7 SE 28 41 15 22 1014.2 - 0.0
31/01:00pm 30.7 27.4 16.9 43 8.7 ESE 30 39 16 21 1014.5 - 0.0
31/12:30pm 29.2 26.7 17.0 47 7.7 SE 26 37 14 20 1015.0 - 0.0
31/12:00pm 29.8 28.2 18.3 50 7.4 SE 24 33 13 18 1015.4 1015.2 0.0
31/11:30am 29.5 27.6 17.7 49 7.5 E 24 28 13 15 1015.6 - 0.0
31/11:00am 29.4 28.8 18.9 53 6.8 E 20 28 11 15 1016.1 - 0.0
31/10:30am 29.7 28.8 18.1 49 7.4 E 20 30 11 16 1016.3 - 0.0
31/10:00am 29.0 29.1 21.2 62 5.2 ENE 22 30 12 16 1016.2 - 0.0
31/09:30am 29.5 28.5 14.7 40 9.0 SSE 13 19 7 10 1015.7 - 0.0
31/09:00am 27.8 29.3 18.8 58 5.8 SSE 9 13 5 7 1015.7 1015.5 0.0
31/08:30am 25.6 28.4 20.9 75 3.1 S 7 11 4 6 1015.4 - 0.0
31/08:00am 23.9 27.2 21.9 88 1.3 S 7 9 4 5 1015.3 - 0.0
31/07:30am 21.7 24.5 20.5 93 0.8 S 6 9 3 5 1015.2 - 0.0
31/07:17am 19.6 22.0 18.8 95 0.5 S 4 6 2 3 1015.1 - 0.0
31/07:00am 18.5 20.4 17.7 95 0.5 S 4 7 2 4 1014.9 - 0.0
31/06:30am 17.9 20.0 17.1 95 0.5 S 2 6 1 3 1014.5 - 0.0
31/06:00am 18.1 20.6 17.3 95 0.5 CALM 0 0 0 0 1014.2 1013.9 0.0
31/05:30am 18.4 21.0 17.4 94 0.6 CALM 0 0 0 0 1014.0 - 0.0
31/05:00am 18.9 21.8 18.1 95 0.5 CALM 0 0 0 0 1014.0 - 0.0
31/04:30am 19.1 22.0 18.1 94 0.6 CALM 0 0 0 0 1014.0 - 0.0
31/04:00am 19.2 22.2 18.4 95 0.5 CALM 0 0 0 0 1014.0 - 0.0
31/03:30am 19.5 22.7 18.9 96 0.4 CALM 0 0 0 0 1014.1 - 0.0
31/03:09am 20.1 23.4 19.1 94 0.6 CALM 0 0 0 0 1014.2 - 0.0
31/03:00am 19.9 23.1 18.9 94 0.6 CALM 0 0 0 0 1014.3 1014.0 0.0
31/02:47am 19.8 22.9 18.7 93 0.7 CALM 0 0 0 0 1014.4 - 0.0
31/02:30am 19.4 21.7 18.6 95 0.5 S 4 7 2 4 1014.4 - 0.0
31/02:00am 19.9 22.0 18.9 94 0.6 SSW 6 9 3 5 1014.6 - 0.0
31/01:30am 20.8 23.3 20.2 96 0.4 S 7 9 4 5 1014.8 - 0.0
31/01:00am 19.9 22.0 18.9 94 0.6 S 6 7 3 4 1015.3 - 0.0
31/12:30am 20.0 22.1 18.9 93 0.7 SSE 6 7 3 4 1015.6 - 0.0
31/12:00am 20.2 22.0 18.8 92 0.9 S 7 11 4 6 1015.8 1015.6 0.0
 
Date/Time
CST
Temp
°C
App
Temp
°C
Dew
Point
Rel
Hum
%
Delta-T
°C
Wind Press
QNH
hPa
Press
MSL
hPa
Rain
since 9 am
mm
Dir
 
Spd
km/h
Gust
km/h
Spd
kts
Gust
kts
30/11:56pm 20.4 22.0 19.1 92 0.8 S 9 11 5 6 1015.8 - 0.0
30/11:53pm 20.8 23.0 19.5 92 0.8 S 7 11 4 6 1015.7 - 0.0
30/11:30pm 20.2 23.4 18.9 92 0.8 CALM 0 0 0 0 1015.9 - 0.0
30/11:00pm 20.5 22.7 19.2 92 0.8 S 6 7 3 4 1015.8 - 0.0
30/10:30pm 20.7 23.0 19.4 92 0.8 S 6 7 3 4 1015.8 - 0.0
30/10:29pm 20.7 23.0 19.4 92 0.8 S 6 7 3 4 1015.8 - 0.0
30/10:00pm 21.2 23.5 19.5 90 1.1 SE 6 7 3 4 1015.9 - 0.0
30/09:30pm 21.6 24.0 19.6 88 1.3 SE 6 7 3 4 1015.7 - 0.0
30/09:00pm 22.0 24.2 19.5 86 1.6 ESE 7 9 4 5 1015.6 1015.4 0.0
30/08:30pm 22.3 24.6 19.8 86 1.6 ESE 7 7 4 4 1015.4 - 0.0
30/08:00pm 22.6 24.9 19.8 84 1.8 SE 7 9 4 5 1015.1 - 0.0
30/07:30pm 23.6 25.8 19.7 79 2.5 ESE 7 11 4 6 1015.0 - 0.0
30/07:00pm 24.4 26.2 19.6 74 3.1 E 9 13 5 7 1014.7 - 0.0
30/06:30pm 25.1 26.4 19.3 70 3.7 E 11 13 6 7 1014.4 - 0.0
30/06:00pm 26.0 26.9 19.2 66 4.4 ESE 13 17 7 9 1014.2 1013.9 0.0
30/05:30pm 26.7 27.1 19.1 63 4.9 SE 15 20 8 11 1014.1 - 0.0
30/05:00pm 27.1 27.1 19.7 64 4.8 SSE 19 24 10 13 1014.0 - 0.0
30/04:30pm 27.3 27.9 20.3 65 4.6 SSE 17 24 9 13 1013.9 - 0.0
30/04:00pm 28.0 28.1 19.9 61 5.3 SSE 19 30 10 16 1013.8 - 0.0
30/03:30pm 27.9 27.8 19.6 60 5.4 SE 19 32 10 17 1013.9 - 0.0
30/03:00pm 27.7 27.7 20.1 63 5.0 SE 20 30 11 16 1014.0 1013.7 0.0
30/02:30pm 28.4 28.6 19.3 57 5.9 SE 17 26 9 14 1014.2 - 0.0
30/02:00pm 28.5 28.7 19.3 57 6.0 ESE 17 26 9 14 1014.5 - 0.0
30/01:30pm 28.4 29.4 19.5 58 5.8 SSE 13 22 7 12 1014.9 - 0.0
30/01:00pm 28.8 28.5 19.6 57 6.0 SSE 20 30 11 16 1015.3 - 0.0
30/12:30pm 28.9 28.9 19.0 55 6.4 SE 17 28 9 15 1015.6 - 0.0
30/12:00pm 28.8 28.7 18.7 54 6.5 SE 17 24 9 13 1015.9 1015.7 0.0
30/11:30am 29.3 29.7 18.9 53 6.7 SE 15 22 8 12 1016.3 - 0.0
30/11:00am 28.8 29.6 19.1 55 6.3 ESE 13 24 7 13 1016.8 - 0.0
30/10:30am 28.9 29.2 18.8 54 6.5 ESE 15 20 8 11 1017.0 - 0.0
30/10:00am 28.3 28.1 18.6 55 6.2 ESE 17 24 9 13 1017.2 - 0.0
30/09:30am 27.7 27.9 18.5 57 5.9 ESE 15 24 8 13 1017.2 - 0.0
30/09:00am 26.2 27.2 20.2 69 3.9 SSE 15 20 8 11 1017.1 1016.9 0.0
30/08:30am 25.1 27.0 21.3 79 2.5 S 13 17 7 9 1016.9 - 0.0
30/08:00am 23.9 27.0 21.5 86 1.6 SSE 7 9 4 5 1016.4 - 0.0
30/07:44am 23.0 26.2 21.2 89 1.2 SSE 6 7 3 4 1016.2 - 0.0
30/07:30am 21.7 25.3 20.6 93 0.7 S 2 7 1 4 1016.0 - 0.0
30/07:00am 19.0 21.9 18.2 95 0.5 CALM 0 0 0 0 1015.5 - 0.0
30/06:30am 18.5 20.0 17.7 95 0.5 S 6 7 3 4 1015.1 - 0.0
30/06:00am 18.6 21.2 17.6 94 0.6 CALM 0 0 0 0 1014.8 1014.6 0.0
30/05:30am 18.9 21.8 18.3 96 0.4 CALM 0 0 0 0 1014.8 - 0.0
30/05:00am 18.8 21.6 18.0 95 0.5 CALM 0 0 0 0 1014.6 - 0.0
30/04:30am 18.7 21.5 17.9 95 0.5 CALM 0 0 0 0 1014.4 - 0.0
30/04:00am 19.0 21.8 18.0 94 0.6 CALM 0 0 0 0 1014.3 - 0.0
30/03:30am 19.1 22.0 18.3 95 0.5 CALM 0 0 0 0 1014.4 - 0.0
30/03:00am 19.2 22.1 18.2 94 0.6 CALM 0 0 0 0 1014.4 1014.1 0.0
30/02:30am 19.2 22.1 18.2 94 0.6 CALM 0 0 0 0 1014.4 - 0.0
30/02:00am 19.6 22.7 18.6 94 0.6 CALM 0 0 0 0 1014.7 - 0.0
30/01:30am 19.8 23.0 18.8 94 0.6 CALM 0 0 0 0 1015.0 - 0.0
30/01:00am 20.1 23.4 19.1 94 0.6 CALM 0 0 0 0 1015.4 - 0.0
30/12:30am 20.3 23.6 19.2 93 0.7 CALM 0 0 0 0 1015.6 - 0.0
30/12:00am 21.0 23.3 19.9 93 0.7 S 7 9 4 5 1015.8 1015.6 0.0
 
Date/Time
CST
Temp
°C
App
Temp
°C
Dew
Point
Rel
Hum
%
Delta-T
°C
Wind Press
QNH
hPa
Press
MSL
hPa
Rain
since 9 am
mm
Dir
 
Spd
km/h
Gust
km/h
Spd
kts
Gust
kts
29/11:33pm 21.2 23.6 20.0 93 0.8 S 7 9 4 5 1016.0 - 0.0
29/11:31pm 21.2 23.6 20.0 93 0.8 S 7 9 4 5 1016.0 - 0.0
29/11:30pm 21.1 23.5 20.0 93 0.7 S 7 9 4 5 1016.0 - 0.0
29/11:17pm 21.4 23.8 20.0 92 0.9 SSE 7 9 4 5 1016.0 - 0.0
29/11:11pm 21.4 23.9 20.2 93 0.8 SSE 7 7 4 4 1016.1 - 0.0
29/11:00pm 21.4 24.0 20.0 92 0.9 SE 6 7 3 4 1016.0 - 0.0
29/10:59pm 21.4 24.0 20.0 92 0.9 SE 6 7 3 4 1016.0 - 0.0
29/10:30pm 21.7 24.2 20.3 92 0.9 SE 7 9 4 5 1016.2 - 0.0
29/10:00pm 21.9 24.4 20.2 90 1.1 SE 7 9 4 5 1016.3 - 0.0
29/09:30pm 22.0 24.2 20.5 91 1.0 SSE 9 11 5 6 1016.2 - 0.0
29/09:00pm 22.3 25.2 20.6 90 1.1 SE 6 7 3 4 1016.2 1016.0 0.0
29/08:30pm 22.7 25.0 20.7 88 1.3 SSE 9 9 5 5 1015.9 - 0.0
29/08:00pm 23.0 25.8 20.9 88 1.4 SSE 7 9 4 5 1015.6 - 0.0
29/07:30pm 23.6 26.5 21.0 85 1.7 SSE 7 9 4 5 1015.2 - 0.0
29/07:00pm 24.2 26.7 21.0 82 2.1 SSE 9 13 5 7 1014.9 - 0.0
29/06:30pm 24.9 26.6 20.9 78 2.6 SSE 13 17 7 9 1014.5 - 0.0
29/06:00pm 25.8 27.2 20.3 71 3.6 SSE 13 20 7 11 1014.3 1014.0 0.0
29/05:30pm 26.2 26.2 20.2 69 3.9 SE 20 28 11 15 1014.1 - 0.0
29/05:00pm 26.5 26.5 20.2 68 4.1 ESE 20 26 11 14 1013.9 - 0.0
29/04:30pm 27.1 27.4 20.7 68 4.2 SE 20 26 11 14 1013.8 - 0.0
29/04:00pm 27.4 27.4 19.7 63 5.0 ESE 19 22 10 12 1013.7 - 0.0
29/03:30pm 27.6 27.6 20.1 63 4.9 SE 20 28 11 15 1013.8 - 0.0
29/03:00pm 28.3 27.6 19.5 59 5.7 SE 22 35 12 19 1013.7 1013.4 0.0
29/02:30pm 28.2 27.6 18.9 57 6.0 ESE 20 32 11 17 1014.0 - 0.0
29/02:00pm 29.4 27.9 18.5 52 7.0 E 24 28 13 15 1014.4 - 0.0
29/01:30pm 28.8 27.8 18.9 55 6.4 ESE 22 32 12 17 1015.0 - 0.0
29/01:00pm 28.7 27.4 19.1 56 6.2 ESE 24 35 13 19 1015.4 - 0.0
29/12:30pm 29.7 29.2 19.1 53 6.9 E 20 32 11 17 1015.8 - 0.0
29/12:00pm 28.7 28.1 18.8 55 6.4 E 20 30 11 16 1016.3 1016.1 0.0
29/11:30am 28.5 28.2 19.6 58 5.8 E 20 30 11 16 1016.9 - 0.0
29/11:00am 28.5 28.0 19.2 57 6.0 E 20 28 11 15 1017.3 - 0.0
29/10:30am 27.8 27.1 19.5 60 5.4 E 22 28 12 15 1017.7 - 0.0
29/10:00am 28.1 27.8 19.5 59 5.6 E 20 26 11 14 1017.8 - 0.0
29/09:30am 26.2 25.0 19.2 65 4.5 ESE 24 32 13 17 1017.8 - 0.0
29/09:00am 26.1 25.2 19.8 68 4.1 ESE 24 32 13 17 1017.7 1017.5 0.0
29/08:30am 25.9 25.8 19.9 69 3.9 ESE 20 30 11 16 1017.6 - 0.0
29/08:00am 25.1 27.1 20.8 77 2.8 SE 11 17 6 9 1017.2 - 0.0
29/07:30am 23.1 26.0 21.1 88 1.3 SE 7 11 4 6 1017.0 - 0.0
29/07:00am 20.6 23.1 19.8 95 0.5 SE 6 7 3 4 1016.7 - 0.0
29/06:30am 20.1 23.1 19.3 95 0.5 SE 2 6 1 3 1016.5 - 0.0
29/06:00am 20.1 22.3 19.3 95 0.5 SE 6 7 3 4 1016.0 1015.8 0.0
29/05:45am 19.8 22.0 19.2 96 0.4 SE 6 6 3 3 1015.7 - 0.0
29/05:30am 19.7 21.9 19.1 96 0.4 SE 6 7 3 4 1015.5 - 0.0
29/05:00am 19.8 23.1 19.0 95 0.5 CALM 0 0 0 0 1015.3 - 0.0
29/04:30am 19.6 22.9 19.0 96 0.4 CALM 0 0 0 0 1015.2 - 0.0
29/04:00am 19.8 23.0 18.8 94 0.6 CALM 0 0 0 0 1015.1 - 0.0
29/03:30am 19.8 23.1 19.0 95 0.5 CALM 0 0 0 0 1015.1 - 0.0
29/03:00am 19.9 23.2 19.1 95 0.5 CALM 0 0 0 0 1015.1 1014.9 0.0
29/02:30am 20.0 23.2 18.9 93 0.7 CALM 0 0 0 0 1015.0 - 0.0
29/02:00am 20.0 23.2 18.9 93 0.7 CALM 0 0 0 0 1015.0 - 0.0
29/01:30am 20.3 23.5 18.9 92 0.9 CALM 0 0 0 0 1015.1 - 0.0
29/01:00am 20.9 23.2 19.8 93 0.7 S 7 9 4 5 1015.5 - 0.0
29/12:30am 20.7 24.0 19.9 95 0.5 SE 2 6 1 3 1015.8 - 0.0
29/12:12am 20.9 23.8 19.8 93 0.7 SE 4 6 2 3 1016.0 - 0.0
29/12:00am 20.9 23.4 19.8 93 0.7 SE 6 6 3 3 1016.1 1015.9 0.0
 
Date/Time
CST
Temp
°C
App
Temp
°C
Dew
Point
Rel
Hum
%
Delta-T
°C
Wind Press
QNH
hPa
Press
MSL
hPa
Rain
since 9 am
mm
Dir
 
Spd
km/h
Gust
km/h
Spd
kts
Gust
kts
28/11:30pm 21.1 23.6 19.8 92 0.8 SSE 6 7 3 4 1016.2 - 0.0
28/11:00pm 21.3 23.8 19.9 92 0.9 SSE 6 7 3 4 1016.3 - 0.0
28/10:30pm 21.4 23.9 20.2 93 0.8 SSE 7 9 4 5 1016.2 - 0.0
28/10:00pm 21.9 24.1 20.5 92 0.9 SSE 9 11 5 6 1016.1 - 0.0
28/09:30pm 22.1 24.3 20.4 90 1.1 SSE 9 13 5 7 1015.9 - 0.0
28/09:00pm 22.3 24.6 20.6 90 1.1 SSE 9 11 5 6 1015.8 1015.6 0.0
28/08:30pm 22.5 24.7 20.5 88 1.3 SSE 9 9 5 5 1015.6 - 0.0
28/08:00pm 22.9 25.6 20.6 87 1.5 SSE 7 9 4 5 1015.3 - 0.0
28/07:30pm 23.3 25.5 20.5 84 1.8 SSE 9 11 5 6 1014.9 - 0.0
28/07:00pm 23.9 26.5 20.4 81 2.3 SSE 7 9 4 5 1014.4 - 0.0
28/06:30pm 24.8 26.4 20.0 74 3.1 SSE 11 15 6 8 1014.1 - 0.0
28/06:00pm 25.8 26.7 20.0 70 3.8 SE 15 19 8 10 1013.8 1013.5 0.0
28/05:30pm 26.8 27.5 19.6 64 4.7 SE 15 22 8 12 1013.5 - 0.0
28/05:00pm 26.7 26.5 19.8 66 4.5 ESE 20 26 11 14 1013.5 - 0.0
28/04:30pm 27.7 27.2 19.0 59 5.6 ESE 20 28 11 15 1013.4 - 0.0
28/04:00pm 27.0 26.3 19.4 63 4.9 E 22 30 12 16 1013.4 - 0.0
28/03:30pm 28.5 28.1 19.3 57 6.0 E 20 28 11 15 1013.5 - 0.0
28/03:00pm 28.9 28.4 19.0 55 6.4 E 20 30 11 16 1013.7 1013.4 0.0
28/02:30pm 29.0 27.7 18.2 52 6.9 ESE 22 32 12 17 1013.9 - 0.0

Other Formats:

Comma delimited format used in spreadsheet applications
http://www.bom.gov.au/fwo/IDD60801/IDD60801.94150.axf

JavaScript Object Notation format (JSON) in row-major order
http://www.bom.gov.au/fwo/IDD60801/IDD60801.94150.json